Time;durP1;ratioP1;P1;durP2;ratioP2;P2;SDS_P1;SDS_P2;PMS_P1;PMS_P2;Temp;Humidity;BMP_temperature;BMP_pressure;BME280_temperature;BME280_humidity;BME280_pressure;Samples;Min_cycle;Max_cycle;Signal;HPM_P1;HPM_P2
2021/12/12 00:01:19;;;;;;;81.95;33.63;;;;;;;;;;5112811;28;20062;-62
2021/12/12 00:03:49;;;;;;;84.68;32.88;;;;;;;;;;5113448;28;20396;-62
2021/12/12 00:06:20;;;;;;;81.13;31.33;;;;;;;;;;5113634;28;20036;-62
2021/12/12 00:08:49;;;;;;;88.40;35.10;;;;;;;;;;5112977;28;20043;-62
2021/12/12 00:11:16;;;;;;;89.47;35.15;;;;;;;;;;5094511;28;20044;-62
2021/12/12 00:13:46;;;;;;;86.80;34.45;;;;;;;;;;5111416;28;20035;-62
2021/12/12 00:16:13;;;;;;;83.53;34.25;;;;;;;;;;5113159;28;20047;-62
2021/12/12 00:18:42;;;;;;;94.70;35.42;;;;;;;;;;5095135;28;20074;-62
2021/12/12 00:21:08;;;;;;;89.55;35.10;;;;;;;;;;5113001;28;20040;-62
2021/12/12 00:23:34;;;;;;;88.68;34.45;;;;;;;;;;5104445;28;20420;-62
2021/12/12 00:26:00;;;;;;;87.95;35.97;;;;;;;;;;5113381;28;20023;-62
2021/12/12 00:28:27;;;;;;;86.70;34.30;;;;;;;;;;5112431;28;20031;-62
2021/12/12 00:30:56;;;;;;;87.82;34.58;;;;;;;;;;5112850;28;20039;-62
2021/12/12 00:33:22;;;;;;;70.82;29.67;;;;;;;;;;5112326;28;20516;-62
2021/12/12 00:35:49;;;;;;;79.70;30.25;;;;;;;;;;5112138;28;20066;-62
2021/12/12 00:38:17;;;;;;;81.63;31.50;;;;;;;;;;5112962;28;20043;-62
2021/12/12 00:40:44;;;;;;;87.13;34.10;;;;;;;;;;5112822;28;20036;-62
2021/12/12 00:43:18;;;;;;;86.93;33.13;;;;;;;;;;5093184;28;20043;-62
2021/12/12 00:45:44;;;;;;;78.65;33.00;;;;;;;;;;5112582;28;20460;-62
2021/12/12 00:48:10;;;;;;;67.32;31.05;;;;;;;;;;5112806;28;20510;-62
2021/12/12 00:50:38;;;;;;;83.10;32.63;;;;;;;;;;5107756;28;20039;-61
2021/12/12 00:53:05;;;;;;;75.72;31.85;;;;;;;;;;5112784;28;20469;-62
2021/12/12 00:55:37;;;;;;;78.47;32.85;;;;;;;;;;5111546;28;20162;-62
2021/12/12 00:58:03;;;;;;;84.00;33.30;;;;;;;;;;5112726;28;20051;-62
2021/12/12 01:00:36;;;;;;;75.97;31.92;;;;;;;;;;5094511;28;20055;-62
2021/12/12 01:03:03;;;;;;;87.70;32.78;;;;;;;;;;5112970;28;20044;-62
2021/12/12 01:05:29;;;;;;;75.80;32.60;;;;;;;;;;5111627;28;20447;-62
2021/12/12 01:07:55;;;;;;;87.45;32.60;;;;;;;;;;5111866;28;20036;-62
2021/12/12 01:10:21;;;;;;;78.88;33.50;;;;;;;;;;5112588;28;20075;-62
2021/12/12 01:12:47;;;;;;;84.18;33.83;;;;;;;;;;5112766;28;20552;-62
2021/12/12 01:15:28;;;;;;;77.90;30.90;;;;;;;;;;5107008;28;20036;-62
2021/12/12 01:18:04;;;;;;;80.43;34.30;;;;;;;;;;5093587;28;20100;-62
2021/12/12 01:20:33;;;;;;;81.80;31.70;;;;;;;;;;5092770;28;20055;-62
2021/12/12 01:23:05;;;;;;;70.25;29.88;;;;;;;;;;5111343;28;20516;-62
2021/12/12 01:25:34;;;;;;;65.05;28.77;;;;;;;;;;5111902;28;20031;-62
2021/12/12 01:28:01;;;;;;;79.25;30.25;;;;;;;;;;5112334;28;20028;-62
2021/12/12 01:30:27;;;;;;;79.28;30.52;;;;;;;;;;5092953;28;20048;-62
2021/12/12 01:32:54;;;;;;;77.75;30.48;;;;;;;;;;5111457;28;20528;-62
2021/12/12 01:35:20;;;;;;;65.57;30.52;;;;;;;;;;5111433;28;20039;-62
2021/12/12 01:40:43;;;;;;;70.35;29.75;;;;;;;;;;5111236;28;20035;-62
2021/12/12 01:43:20;;;;;;;68.32;29.90;;;;;;;;;;5111538;28;20039;-62
2021/12/12 01:45:48;;;;;;;61.97;28.02;;;;;;;;;;5112369;28;20078;-62
2021/12/12 01:48:18;;;;;;;68.95;29.08;;;;;;;;;;5109952;28;20039;-62
2021/12/12 01:50:53;;;;;;;67.70;29.08;;;;;;;;;;5110551;28;20065;-62
2021/12/12 01:53:21;;;;;;;62.83;28.85;;;;;;;;;;5110500;28;20521;-62
2021/12/12 01:55:53;;;;;;;61.00;26.15;;;;;;;;;;5109834;28;20035;-62
2021/12/12 01:58:21;;;;;;;62.45;26.52;;;;;;;;;;5093566;28;20048;-62
2021/12/12 02:00:53;;;;;;;60.58;27.75;;;;;;;;;;5111594;28;20039;-62
2021/12/12 02:03:21;;;;;;;61.13;24.90;;;;;;;;;;5093424;28;20306;-62
2021/12/12 02:05:47;;;;;;;55.05;26.17;;;;;;;;;;5091880;28;20040;-62
2021/12/12 02:08:15;;;;;;;63.28;27.08;;;;;;;;;;5083330;28;20043;-62
2021/12/12 02:10:49;;;;;;;52.88;24.40;;;;;;;;;;5111224;28;20476;-62
2021/12/12 02:13:18;;;;;;;60.50;27.08;;;;;;;;;;5111445;28;20047;-62
2021/12/12 02:15:46;;;;;;;56.60;26.30;;;;;;;;;;5109997;28;20088;-63
2021/12/12 02:18:15;;;;;;;68.70;26.30;;;;;;;;;;5111059;28;20032;-62
2021/12/12 02:20:57;;;;;;;57.38;24.35;;;;;;;;;;5110737;28;20112;-63
2021/12/12 02:23:36;;;;;;;52.35;21.75;;;;;;;;;;5111305;28;20040;-63
2021/12/12 02:37:06;;;;;;;47.80;21.25;;;;;;;;;;5111181;28;20047;-63
2021/12/12 02:39:33;;;;;;;47.90;21.95;;;;;;;;;;5092721;28;20481;-63
2021/12/12 02:42:01;;;;;;;51.53;21.27;;;;;;;;;;5111231;28;20142;-62
2021/12/12 02:44:33;;;;;;;52.95;22.50;;;;;;;;;;5091803;28;20098;-63
2021/12/12 02:47:08;;;;;;;50.45;20.98;;;;;;;;;;5085117;28;20047;-62
2021/12/12 02:49:40;;;;;;;41.05;20.83;;;;;;;;;;5111130;28;20044;-63
2021/12/12 02:52:09;;;;;;;47.38;20.67;;;;;;;;;;5110701;28;20082;-63
2021/12/12 02:54:35;;;;;;;44.70;19.92;;;;;;;;;;5095033;27;20477;-63
2021/12/12 02:57:01;;;;;;;43.15;19.67;;;;;;;;;;5123650;27;20118;-63
2021/12/12 02:59:27;;;;;;;47.30;20.27;;;;;;;;;;5095304;28;20036;-63
2021/12/12 03:01:58;;;;;;;50.33;20.33;;;;;;;;;;5098597;27;20386;-63
2021/12/12 03:04:25;;;;;;;47.47;19.42;;;;;;;;;;5122968;27;20034;-63
2021/12/12 03:06:52;;;;;;;45.45;20.20;;;;;;;;;;5132358;27;20047;-63
2021/12/12 03:09:20;;;;;;;37.33;17.65;;;;;;;;;;5123296;27;20058;-62
2021/12/12 03:11:48;;;;;;;42.97;18.88;;;;;;;;;;5114517;28;20516;-63
2021/12/12 03:14:14;;;;;;;49.17;19.95;;;;;;;;;;5119111;27;20348;-63
2021/12/12 03:16:41;;;;;;;49.05;19.52;;;;;;;;;;5124410;27;20445;-62
2021/12/12 03:19:07;;;;;;;43.28;20.48;;;;;;;;;;5120642;27;20058;-62
2021/12/12 03:21:34;;;;;;;38.47;17.92;;;;;;;;;;5108643;27;20043;-63
2021/12/12 03:24:05;;;;;;;51.08;19.25;;;;;;;;;;5132828;27;20031;-63
2021/12/12 03:26:32;;;;;;;42.70;18.20;;;;;;;;;;5120687;27;20042;-63
2021/12/12 03:28:58;;;;;;;46.72;19.67;;;;;;;;;;5114808;28;20039;-63
2021/12/12 03:31:28;;;;;;;44.75;18.83;;;;;;;;;;5114433;28;20035;-63
2021/12/12 03:33:54;;;;;;;44.42;19.27;;;;;;;;;;5096801;28;20039;-63
2021/12/12 03:36:21;;;;;;;43.90;18.15;;;;;;;;;;5114545;28;20069;-63
2021/12/12 03:38:49;;;;;;;45.28;18.60;;;;;;;;;;5114356;28;20511;-63
2021/12/12 03:41:17;;;;;;;52.38;19.23;;;;;;;;;;5095577;28;20498;-63
2021/12/12 03:43:45;;;;;;;38.97;17.20;;;;;;;;;;5114564;27;20057;-63
2021/12/12 03:46:11;;;;;;;38.92;16.85;;;;;;;;;;5114364;27;20074;-63
2021/12/12 03:48:39;;;;;;;38.05;17.25;;;;;;;;;;5113689;28;21635;-63
2021/12/12 03:51:06;;;;;;;41.35;17.42;;;;;;;;;;5094251;28;20505;-62
2021/12/12 03:53:33;;;;;;;40.00;17.80;;;;;;;;;;5125866;27;20119;-63
2021/12/12 03:56:00;;;;;;;44.60;17.42;;;;;;;;;;5104580;28;20303;-63
2021/12/12 03:58:27;;;;;;;42.05;17.65;;;;;;;;;;5108957;28;20036;-63
2021/12/12 04:00:56;;;;;;;44.90;17.85;;;;;;;;;;5112905;28;20126;-63
2021/12/12 04:03:22;;;;;;;43.13;17.55;;;;;;;;;;5110190;28;20071;-63
2021/12/12 04:05:54;;;;;;;38.63;16.30;;;;;;;;;;5108427;28;20031;-63
2021/12/12 04:08:25;;;;;;;38.63;16.98;;;;;;;;;;5107275;28;20510;-63
2021/12/12 04:10:51;;;;;;;37.75;17.42;;;;;;;;;;5090519;28;20044;-63
2021/12/12 04:13:17;;;;;;;38.17;16.20;;;;;;;;;;5112088;28;20040;-63
2021/12/12 04:15:43;;;;;;;40.60;17.63;;;;;;;;;;5095125;28;20089;-63
2021/12/12 04:18:09;;;;;;;44.42;18.15;;;;;;;;;;5113766;28;20058;-63
2021/12/12 04:20:38;;;;;;;41.47;17.45;;;;;;;;;;5113131;28;20124;-63
2021/12/12 04:23:14;;;;;;;47.50;18.73;;;;;;;;;;5111356;28;20036;-63
2021/12/12 04:25:40;;;;;;;36.83;15.30;;;;;;;;;;5108509;28;20039;-63
2021/12/12 04:28:06;;;;;;;34.13;15.18;;;;;;;;;;5094459;28;20146;-63
2021/12/12 04:30:32;;;;;;;38.78;16.42;;;;;;;;;;5104576;28;20039;-63
2021/12/12 04:32:58;;;;;;;31.55;16.08;;;;;;;;;;5113272;28;20499;-63
2021/12/12 04:35:25;;;;;;;38.08;17.15;;;;;;;;;;5113085;28;20035;-63
2021/12/12 04:37:52;;;;;;;39.05;16.45;;;;;;;;;;5103849;28;20126;-63
2021/12/12 04:40:19;;;;;;;40.15;16.60;;;;;;;;;;5110398;28;20092;-63
2021/12/12 04:42:46;;;;;;;35.17;16.48;;;;;;;;;;5112914;28;20075;-63
2021/12/12 04:45:18;;;;;;;30.42;13.77;;;;;;;;;;5113332;28;20412;-63
2021/12/12 04:50:35;;;;;;;27.92;13.80;;;;;;;;;;5107499;28;20505;-63
2021/12/12 04:53:04;;;;;;;31.08;13.73;;;;;;;;;;5092588;28;20043;-63
2021/12/12 04:55:33;;;;;;;28.58;14.52;;;;;;;;;;5093316;28;20485;-63
2021/12/12 04:58:03;;;;;;;26.33;12.57;;;;;;;;;;5110077;28;20456;-63
2021/12/12 05:00:36;;;;;;;31.20;13.13;;;;;;;;;;5107359;28;20054;-63
2021/12/12 05:03:16;;;;;;;32.53;13.55;;;;;;;;;;5091171;28;20032;-63
2021/12/12 05:06:17;;;;;;;31.13;14.27;;;;;;;;;;5104626;28;20048;-63
2021/12/12 05:08:52;;;;;;;23.60;12.75;;;;;;;;;;5008761;28;20118;-63
2021/12/12 05:11:25;;;;;;;26.20;13.57;;;;;;;;;;5097539;28;20076;-63
2021/12/12 05:13:55;;;;;;;31.35;13.05;;;;;;;;;;5093666;28;20093;-63
2021/12/12 05:16:24;;;;;;;25.38;12.77;;;;;;;;;;5112343;27;20035;-63
2021/12/12 05:18:52;;;;;;;28.23;14.10;;;;;;;;;;5121478;27;20039;-63
2021/12/12 05:21:24;;;;;;;25.35;12.55;;;;;;;;;;5112400;27;20039;-63
2021/12/12 05:23:50;;;;;;;23.30;12.02;;;;;;;;;;5101555;22;20124;-72
2021/12/12 05:26:19;;;;;;;28.23;12.98;;;;;;;;;;5089451;28;20027;-71
2021/12/12 05:28:48;;;;;;;22.25;12.50;;;;;;;;;;5091901;28;20425;-71
2021/12/12 05:31:15;;;;;;;22.73;12.15;;;;;;;;;;5089830;28;20066;-71
2021/12/12 05:33:42;;;;;;;18.65;11.38;;;;;;;;;;5080508;28;20040;-71
2021/12/12 05:36:11;;;;;;;26.60;13.18;;;;;;;;;;5091829;28;20528;-72
2021/12/12 05:38:38;;;;;;;27.75;12.20;;;;;;;;;;5090686;28;20493;-72
2021/12/12 05:41:04;;;;;;;26.05;12.73;;;;;;;;;;5090852;28;20044;-72
2021/12/12 05:43:31;;;;;;;23.38;11.15;;;;;;;;;;5091739;28;20546;-72
2021/12/12 05:45:57;;;;;;;21.40;10.68;;;;;;;;;;5091676;28;20036;-72
2021/12/12 05:48:23;;;;;;;18.80;10.68;;;;;;;;;;5091388;28;20036;-72
2021/12/12 05:50:51;;;;;;;17.65;10.27;;;;;;;;;;5091032;28;20039;-71
2021/12/12 05:53:18;;;;;;;19.45;9.82;;;;;;;;;;5089911;28;20069;-72
2021/12/12 05:55:46;;;;;;;21.98;10.18;;;;;;;;;;5067420;28;20040;-72
2021/12/12 05:58:14;;;;;;;17.30;9.43;;;;;;;;;;5087758;28;20046;-72
2021/12/12 06:00:46;;;;;;;16.25;9.30;;;;;;;;;;5079038;28;20032;-72
2021/12/12 06:03:13;;;;;;;16.83;8.63;;;;;;;;;;5086868;28;20067;-71
2021/12/12 06:05:39;;;;;;;16.75;9.57;;;;;;;;;;5088693;28;20083;-72
2021/12/12 06:08:06;;;;;;;17.83;9.57;;;;;;;;;;5088627;28;21459;-72
2021/12/12 06:10:34;;;;;;;15.77;9.57;;;;;;;;;;5090954;28;20046;-72
2021/12/12 06:13:01;;;;;;;12.55;7.97;;;;;;;;;;5090584;28;20043;-72
2021/12/12 06:15:28;;;;;;;20.17;9.80;;;;;;;;;;5102293;28;20047;-72
2021/12/12 06:17:56;;;;;;;17.25;9.50;;;;;;;;;;5091447;28;20071;-72
2021/12/12 06:20:22;;;;;;;17.50;9.77;;;;;;;;;;5096347;28;20059;-72
2021/12/12 06:22:48;;;;;;;19.02;9.55;;;;;;;;;;5093345;28;20047;-72
2021/12/12 06:25:15;;;;;;;15.68;9.05;;;;;;;;;;5091637;28;20044;-72
2021/12/12 06:27:41;;;;;;;15.05;9.10;;;;;;;;;;5086471;28;20104;-72
2021/12/12 06:30:10;;;;;;;14.50;8.73;;;;;;;;;;5084861;28;20028;-72
2021/12/12 06:32:36;;;;;;;18.75;9.68;;;;;;;;;;5083661;28;20113;-72
2021/12/12 06:35:04;;;;;;;19.67;9.35;;;;;;;;;;5087986;28;20028;-72
2021/12/12 06:37:30;;;;;;;14.95;8.57;;;;;;;;;;5094250;28;20036;-72
2021/12/12 06:39:56;;;;;;;17.38;9.35;;;;;;;;;;5093429;28;20043;-72
2021/12/12 06:42:22;;;;;;;18.80;10.07;;;;;;;;;;5093237;28;20040;-72
2021/12/12 06:44:48;;;;;;;14.48;8.23;;;;;;;;;;5094393;28;20032;-73
2021/12/12 06:47:15;;;;;;;19.48;10.10;;;;;;;;;;5093586;28;20035;-72
2021/12/12 06:49:41;;;;;;;21.42;9.75;;;;;;;;;;5093155;28;20044;-73
2021/12/12 06:52:08;;;;;;;15.40;9.40;;;;;;;;;;5091916;28;20081;-73
2021/12/12 06:54:35;;;;;;;18.92;9.55;;;;;;;;;;5085913;28;20042;-72
2021/12/12 06:57:03;;;;;;;18.08;9.18;;;;;;;;;;5093917;28;20039;-72
2021/12/12 06:59:30;;;;;;;19.23;10.23;;;;;;;;;;5091952;28;20048;-73
2021/12/12 07:01:58;;;;;;;18.00;9.75;;;;;;;;;;5089496;28;20036;-73
2021/12/12 07:04:24;;;;;;;17.80;8.80;;;;;;;;;;5093035;28;20482;-72
2021/12/12 07:06:57;;;;;;;20.27;9.02;;;;;;;;;;5093400;28;20493;-72
2021/12/12 07:09:23;;;;;;;19.23;9.52;;;;;;;;;;5086745;28;20040;-72
2021/12/12 07:11:50;;;;;;;21.35;9.80;;;;;;;;;;5085654;28;20044;-72
2021/12/12 07:14:16;;;;;;;21.55;9.70;;;;;;;;;;5091139;28;20093;-72
2021/12/12 07:16:43;;;;;;;24.05;11.15;;;;;;;;;;5091865;28;20442;-72
2021/12/12 07:19:09;;;;;;;19.85;10.20;;;;;;;;;;5094162;28;20039;-73
2021/12/12 07:21:36;;;;;;;23.40;10.55;;;;;;;;;;5098486;28;20040;-73
2021/12/12 07:24:06;;;;;;;25.85;11.80;;;;;;;;;;5090780;28;20032;-73
2021/12/12 07:26:32;;;;;;;20.50;10.45;;;;;;;;;;5069815;28;20036;-73
2021/12/12 07:28:59;;;;;;;25.92;11.68;;;;;;;;;;5094304;28;20093;-73
2021/12/12 07:31:26;;;;;;;20.90;10.82;;;;;;;;;;5089286;28;20032;-74
2021/12/12 07:33:55;;;;;;;19.60;10.10;;;;;;;;;;5089541;28;20071;-72
2021/12/12 07:36:21;;;;;;;20.83;11.25;;;;;;;;;;5092873;28;20046;-73
2021/12/12 07:38:50;;;;;;;19.95;9.65;;;;;;;;;;5091929;28;20485;-73
2021/12/12 07:41:18;;;;;;;23.75;11.25;;;;;;;;;;5089541;28;20093;-73
2021/12/12 07:43:44;;;;;;;23.52;10.98;;;;;;;;;;5086657;28;20131;-73
2021/12/12 07:46:10;;;;;;;22.42;10.85;;;;;;;;;;5091856;28;20032;-73
2021/12/12 07:48:39;;;;;;;25.67;11.20;;;;;;;;;;5093075;28;20097;-73
2021/12/12 07:51:05;;;;;;;21.65;10.50;;;;;;;;;;5084387;28;20486;-73
2021/12/12 07:53:31;;;;;;;19.65;10.48;;;;;;;;;;5088537;28;20040;-74
2021/12/12 07:55:58;;;;;;;21.90;10.18;;;;;;;;;;5091881;28;20118;-73
2021/12/12 07:58:25;;;;;;;20.17;10.30;;;;;;;;;;5091720;28;20537;-74
2021/12/12 08:00:52;;;;;;;18.10;9.57;;;;;;;;;;5085716;28;20094;-73
2021/12/12 08:03:21;;;;;;;22.08;10.93;;;;;;;;;;5087771;28;20040;-74
2021/12/12 08:05:47;;;;;;;19.35;10.02;;;;;;;;;;5088386;28;20032;-73
2021/12/12 08:08:14;;;;;;;22.38;10.57;;;;;;;;;;5090782;28;20075;-74
2021/12/12 08:10:41;;;;;;;23.30;11.30;;;;;;;;;;5089823;28;20039;-73
2021/12/12 08:13:09;;;;;;;23.38;11.20;;;;;;;;;;5091420;28;20040;-74
2021/12/12 08:15:35;;;;;;;21.63;10.60;;;;;;;;;;5091151;28;20040;-73
2021/12/12 08:18:02;;;;;;;21.95;10.73;;;;;;;;;;5079614;28;20045;-73
2021/12/12 08:20:30;;;;;;;23.77;11.38;;;;;;;;;;5085914;28;20055;-72
2021/12/12 08:22:56;;;;;;;20.75;10.57;;;;;;;;;;5087627;28;20090;-73
2021/12/12 08:25:22;;;;;;;24.15;11.88;;;;;;;;;;5089943;28;20181;-73
2021/12/12 08:27:48;;;;;;;24.70;11.32;;;;;;;;;;5086767;28;20039;-73
2021/12/12 08:30:16;;;;;;;17.90;9.88;;;;;;;;;;5087958;28;20170;-73
2021/12/12 08:32:43;;;;;;;24.75;11.77;;;;;;;;;;5089881;28;20039;-73
2021/12/12 08:35:11;;;;;;;25.00;12.25;;;;;;;;;;5089876;28;20063;-73
2021/12/12 08:37:37;;;;;;;23.10;12.02;;;;;;;;;;5090201;28;20121;-73
2021/12/12 08:40:04;;;;;;;22.52;11.02;;;;;;;;;;5089899;28;20417;-73
2021/12/12 08:42:30;;;;;;;26.05;11.70;;;;;;;;;;5087679;28;20032;-73
2021/12/12 08:44:57;;;;;;;23.27;11.88;;;;;;;;;;5089106;28;20085;-73
2021/12/12 08:47:24;;;;;;;20.48;10.15;;;;;;;;;;5090692;28;20036;-72
2021/12/12 08:49:51;;;;;;;24.65;12.35;;;;;;;;;;5088482;28;20036;-73
2021/12/12 08:52:19;;;;;;;25.45;11.93;;;;;;;;;;5091311;28;20040;-73
2021/12/12 08:54:46;;;;;;;25.25;11.65;;;;;;;;;;5092306;28;20563;-73
2021/12/12 08:57:23;;;;;;;27.65;12.38;;;;;;;;;;5091180;28;20039;-73
2021/12/12 08:59:52;;;;;;;26.48;11.75;;;;;;;;;;5088950;28;20048;-73
2021/12/12 09:02:18;;;;;;;29.65;11.95;;;;;;;;;;5089282;28;20051;-72
2021/12/12 09:04:48;;;;;;;24.20;11.02;;;;;;;;;;5092148;28;20044;-72
2021/12/12 09:07:17;;;;;;;19.05;10.02;;;;;;;;;;5091254;28;20118;-72
2021/12/12 09:09:48;;;;;;;26.17;11.15;;;;;;;;;;5091175;28;20032;-72
2021/12/12 09:12:29;;;;;;;27.80;11.50;;;;;;;;;;5090149;28;20040;-72
2021/12/12 09:15:04;;;;;;;24.63;11.35;;;;;;;;;;5091504;28;20032;-72
2021/12/12 09:17:33;;;;;;;25.83;11.10;;;;;;;;;;5091982;28;20527;-72
2021/12/12 09:20:11;;;;;;;26.23;11.68;;;;;;;;;;5094642;28;20054;-72
2021/12/12 09:22:42;;;;;;;26.33;11.30;;;;;;;;;;5094897;28;20044;-72
2021/12/12 09:25:14;;;;;;;30.02;13.00;;;;;;;;;;5073740;28;20044;-72
2021/12/12 09:27:49;;;;;;;27.70;11.73;;;;;;;;;;5090958;28;20048;-72
2021/12/12 09:30:18;;;;;;;28.60;12.68;;;;;;;;;;5089692;28;20051;-72
2021/12/12 09:32:43;;;;;;;27.45;12.27;;;;;;;;;;5088689;28;20410;-71
2021/12/12 09:35:15;;;;;;;26.80;13.32;;;;;;;;;;5091721;28;20047;-72
2021/12/12 09:37:56;;;;;;;33.17;13.57;;;;;;;;;;5090407;28;20051;-71
2021/12/12 09:40:28;;;;;;;32.33;13.45;;;;;;;;;;5088470;28;20048;-71
2021/12/12 09:43:03;;;;;;;34.13;12.80;;;;;;;;;;5091240;28;20458;-72
2021/12/12 09:45:38;;;;;;;30.20;13.48;;;;;;;;;;5089752;28;20093;-71
2021/12/12 09:51:30;;;;;;;35.35;13.90;;;;;;;;;;5090840;28;20052;-70
2021/12/12 09:53:56;;;;;;;33.95;13.70;;;;;;;;;;5089484;28;20509;-71
2021/12/12 09:56:33;;;;;;;31.02;12.82;;;;;;;;;;5090328;28;20055;-71
2021/12/12 09:59:03;;;;;;;35.42;14.23;;;;;;;;;;5083996;28;20040;-70
2021/12/12 10:01:33;;;;;;;41.78;14.88;;;;;;;;;;5084439;28;20036;-71
2021/12/12 10:04:17;;;;;;;41.63;14.25;;;;;;;;;;5090977;28;20043;-70
2021/12/12 10:06:52;;;;;;;38.58;15.20;;;;;;;;;;5090178;28;20073;-70
2021/12/12 10:09:25;;;;;;;34.13;13.80;;;;;;;;;;5090086;28;20058;-71
2021/12/12 10:12:00;;;;;;;36.63;14.63;;;;;;;;;;5090472;28;20168;-71
2021/12/12 10:14:26;;;;;;;34.33;13.68;;;;;;;;;;5088866;28;20487;-70
2021/12/12 10:16:52;;;;;;;40.28;14.75;;;;;;;;;;5089049;28;20123;-71
2021/12/12 10:19:21;;;;;;;38.55;14.13;;;;;;;;;;5081410;28;20048;-71
2021/12/12 10:22:02;;;;;;;38.30;14.02;;;;;;;;;;5097914;28;20490;-71
2021/12/12 10:24:31;;;;;;;29.70;12.38;;;;;;;;;;5087103;28;20043;-72
2021/12/12 10:27:13;;;;;;;41.70;13.75;;;;;;;;;;5091012;28;20105;-71
2021/12/12 10:29:58;;;;;;;20.73;9.65;;;;;;;;;;5090079;28;20482;-71
2021/12/12 10:32:26;;;;;;;30.35;13.45;;;;;;;;;;5084151;28;20085;-71
2021/12/12 10:34:57;;;;;;;30.73;12.93;;;;;;;;;;5072000;28;20606;-72
2021/12/12 10:37:23;;;;;;;29.20;12.68;;;;;;;;;;5086048;28;20040;-71
2021/12/12 10:39:53;;;;;;;34.75;13.38;;;;;;;;;;5087703;28;20040;-72
2021/12/12 10:42:21;;;;;;;28.00;11.35;;;;;;;;;;5089155;28;20047;-71
2021/12/12 10:44:47;;;;;;;34.28;12.95;;;;;;;;;;5090981;28;20032;-71
2021/12/12 10:47:16;;;;;;;29.92;12.60;;;;;;;;;;5090414;28;20040;-71
2021/12/12 10:49:43;;;;;;;29.58;12.43;;;;;;;;;;5090659;28;20036;-71
2021/12/12 10:52:11;;;;;;;30.13;12.05;;;;;;;;;;5091914;28;20068;-71
2021/12/12 10:54:46;;;;;;;27.45;11.45;;;;;;;;;;5097452;28;20497;-72
2021/12/12 10:57:16;;;;;;;30.10;12.32;;;;;;;;;;5084730;28;20132;-72
2021/12/12 10:59:52;;;;;;;29.05;11.63;;;;;;;;;;5090598;28;20501;-72
2021/12/12 11:02:20;;;;;;;25.65;11.18;;;;;;;;;;5090186;28;20447;-72
2021/12/12 11:04:48;;;;;;;28.45;11.55;;;;;;;;;;5090416;28;20039;-72
2021/12/12 11:07:21;;;;;;;23.45;9.57;;;;;;;;;;5090778;28;20087;-73
2021/12/12 11:10:13;;;;;;;28.92;11.50;;;;;;;;;;5090483;28;20040;-72
2021/12/12 11:13:05;;;;;;;27.42;10.82;;;;;;;;;;5049270;28;20415;-73
2021/12/12 11:15:36;;;;;;;30.65;11.88;;;;;;;;;;5080478;28;20047;-72
2021/12/12 11:18:06;;;;;;;30.25;12.07;;;;;;;;;;5090638;28;20032;-72
2021/12/12 11:20:42;;;;;;;25.65;11.05;;;;;;;;;;5086663;28;20050;-72
2021/12/12 11:23:18;;;;;;;28.52;11.75;;;;;;;;;;5105843;22;20478;-63
2021/12/12 11:26:04;;;;;;;20.70;10.07;;;;;;;;;;5098619;28;20429;-62
2021/12/12 11:28:37;;;;;;;26.75;11.52;;;;;;;;;;5085597;28;20093;-63
2021/12/12 11:31:08;;;;;;;24.30;10.57;;;;;;;;;;5080059;28;20046;-62
2021/12/12 11:33:35;;;;;;;23.42;10.68;;;;;;;;;;5091630;28;20036;-64
2021/12/12 11:36:02;;;;;;;29.27;11.50;;;;;;;;;;5091688;28;20040;-64
2021/12/12 11:38:31;;;;;;;25.40;10.23;;;;;;;;;;5088177;28;20048;-64
2021/12/12 11:41:06;;;;;;;27.95;11.38;;;;;;;;;;5092022;28;20044;-64
2021/12/12 11:43:35;;;;;;;27.50;11.45;;;;;;;;;;5070762;28;20036;-63
2021/12/12 11:46:04;;;;;;;29.15;12.13;;;;;;;;;;5091800;28;20042;-63
2021/12/12 11:48:47;;;;;;;30.02;11.95;;;;;;;;;;5093477;28;20443;-64
2021/12/12 11:51:19;;;;;;;26.73;10.90;;;;;;;;;;5074338;28;20050;-64
2021/12/12 11:53:45;;;;;;;24.20;9.98;;;;;;;;;;5087617;28;20589;-63
2021/12/12 11:56:21;;;;;;;25.45;11.02;;;;;;;;;;5074403;28;20123;-64
2021/12/12 11:58:54;;;;;;;25.55;10.18;;;;;;;;;;5075491;28;20044;-64
2021/12/12 12:01:34;;;;;;;26.25;10.82;;;;;;;;;;5093420;28;20525;-64
2021/12/12 12:04:04;;;;;;;29.10;11.50;;;;;;;;;;5093057;28;20081;-64
2021/12/12 12:06:35;;;;;;;24.25;9.90;;;;;;;;;;5061988;28;20511;-64
2021/12/12 12:09:04;;;;;;;27.23;10.48;;;;;;;;;;5075029;28;20150;-64
2021/12/12 12:11:33;;;;;;;26.60;11.73;;;;;;;;;;5093563;28;20495;-64
2021/12/12 12:14:08;;;;;;;28.75;11.35;;;;;;;;;;5089081;28;20532;-64
2021/12/12 12:16:52;;;;;;;26.58;10.88;;;;;;;;;;5072481;28;20054;-64
2021/12/12 12:19:32;;;;;;;27.42;10.88;;;;;;;;;;5092832;28;20039;-64
2021/12/12 12:22:23;;;;;;;24.33;10.88;;;;;;;;;;5071452;28;20051;-64
2021/12/12 12:25:15;;;;;;;32.60;11.77;;;;;;;;;;5074274;28;20067;-64
2021/12/12 12:27:43;;;;;;;36.38;12.75;;;;;;;;;;5089485;28;20071;-64
2021/12/12 12:30:28;;;;;;;32.90;12.05;;;;;;;;;;5088262;28;20089;-65
2021/12/12 12:33:09;;;;;;;35.90;12.48;;;;;;;;;;5091493;28;20043;-64
2021/12/12 12:35:41;;;;;;;30.38;12.38;;;;;;;;;;5087606;28;20074;-64
2021/12/12 12:38:26;;;;;;;33.83;13.13;;;;;;;;;;5079033;28;20047;-64
2021/12/12 12:41:30;;;;;;;30.73;12.73;;;;;;;;;;5085834;28;20051;-64
2021/12/12 12:44:14;;;;;;;33.33;12.32;;;;;;;;;;5088111;28;20043;-64
2021/12/12 12:46:59;;;;;;;29.33;12.30;;;;;;;;;;5072500;28;20068;-64
2021/12/12 12:49:44;;;;;;;43.20;13.98;;;;;;;;;;5072985;28;20127;-64
2021/12/12 12:52:28;;;;;;;41.05;13.38;;;;;;;;;;5099607;28;20046;-64
2021/12/12 12:55:00;;;;;;;44.58;14.20;;;;;;;;;;5092984;28;20044;-64
2021/12/12 12:57:31;;;;;;;37.88;13.23;;;;;;;;;;5087691;28;20071;-64
2021/12/12 13:00:09;;;;;;;36.55;13.20;;;;;;;;;;5090549;28;20036;-64
2021/12/12 13:02:54;;;;;;;41.83;13.77;;;;;;;;;;5088526;28;20796;-64
2021/12/12 13:05:38;;;;;;;44.20;14.30;;;;;;;;;;5090983;28;20401;-64
2021/12/12 13:08:23;;;;;;;43.25;14.15;;;;;;;;;;5082959;28;20036;-64
2021/12/12 13:10:49;;;;;;;48.00;14.93;;;;;;;;;;5072533;28;20047;-64
2021/12/12 13:13:27;;;;;;;42.40;14.02;;;;;;;;;;5092051;28;20039;-64
2021/12/12 13:16:00;;;;;;;42.97;14.18;;;;;;;;;;5088248;28;20558;-64
2021/12/12 13:18:58;;;;;;;35.20;13.57;;;;;;;;;;5085535;28;20043;-64
2021/12/12 13:21:30;;;;;;;50.25;15.68;;;;;;;;;;5043634;28;20048;-64
2021/12/12 13:24:14;;;;;;;41.83;14.43;;;;;;;;;;5091096;28;20040;-64
2021/12/12 13:27:13;;;;;;;44.95;15.00;;;;;;;;;;5073913;28;20661;-64
2021/12/12 13:30:00;;;;;;;45.78;15.50;;;;;;;;;;5083393;28;20039;-64
2021/12/12 13:32:35;;;;;;;44.40;14.77;;;;;;;;;;5090009;28;20040;-64
2021/12/12 13:35:21;;;;;;;38.72;13.75;;;;;;;;;;5091335;28;20062;-64
2021/12/12 13:38:00;;;;;;;38.55;13.48;;;;;;;;;;5080918;28;20047;-65
2021/12/12 13:40:29;;;;;;;43.22;14.65;;;;;;;;;;5088812;28;20071;-64
2021/12/12 13:43:06;;;;;;;37.83;14.00;;;;;;;;;;5085810;28;20040;-64
2021/12/12 13:45:39;;;;;;;47.05;14.23;;;;;;;;;;5090962;28;20046;-64
2021/12/12 13:48:24;;;;;;;43.75;14.23;;;;;;;;;;5087933;28;20032;-64
2021/12/12 13:50:56;;;;;;;52.63;15.32;;;;;;;;;;5091040;28;20096;-64
2021/12/12 13:53:31;;;;;;;48.15;15.07;;;;;;;;;;5086397;28;20405;-64
2021/12/12 13:56:03;;;;;;;48.92;14.95;;;;;;;;;;5090615;28;20099;-64
2021/12/12 13:58:43;;;;;;;50.92;15.75;;;;;;;;;;5089787;28;20085;-65
2021/12/12 14:01:16;;;;;;;53.83;15.67;;;;;;;;;;5072468;28;20048;-65
2021/12/12 14:03:46;;;;;;;43.10;15.52;;;;;;;;;;5090996;28;20047;-64
2021/12/12 14:06:15;;;;;;;38.35;14.13;;;;;;;;;;5088735;28;20097;-64
2021/12/12 14:08:46;;;;;;;50.75;16.08;;;;;;;;;;5089159;28;20040;-65
2021/12/12 14:11:20;;;;;;;58.75;16.80;;;;;;;;;;5072509;28;20055;-65
2021/12/12 14:13:47;;;;;;;48.53;15.65;;;;;;;;;;5090999;28;20062;-65
2021/12/12 14:16:22;;;;;;;54.22;17.42;;;;;;;;;;5090402;28;20102;-65
2021/12/12 14:18:55;;;;;;;62.58;17.85;;;;;;;;;;5087893;28;20036;-65
2021/12/12 14:21:22;;;;;;;58.63;17.70;;;;;;;;;;5088868;28;20486;-65
2021/12/12 14:23:48;;;;;;;79.70;25.88;;;;;;;;;;5071922;28;20040;-65
2021/12/12 14:26:16;;;;;;;78.00;21.00;;;;;;;;;;5088951;28;20036;-65
2021/12/12 14:28:44;;;;;;;74.65;28.58;;;;;;;;;;5087721;28;20094;-64
2021/12/12 14:31:10;;;;;;;139.50;65.28;;;;;;;;;;5091071;28;20036;-65
2021/12/12 14:33:42;;;;;;;69.90;20.23;;;;;;;;;;5089067;28;20134;-65
2021/12/12 14:36:12;;;;;;;79.10;28.60;;;;;;;;;;5089827;28;20409;-66
2021/12/12 14:38:38;;;;;;;76.50;27.08;;;;;;;;;;5088169;28;20044;-65
2021/12/12 14:41:05;;;;;;;80.07;23.55;;;;;;;;;;5090065;28;20508;-65
2021/12/12 14:43:35;;;;;;;83.03;35.45;;;;;;;;;;5086542;28;20040;-65
2021/12/12 14:46:05;;;;;;;72.88;23.60;;;;;;;;;;5084136;28;20028;-65
2021/12/12 14:48:36;;;;;;;60.28;23.52;;;;;;;;;;5088063;28;20028;-65
2021/12/12 14:51:10;;;;;;;91.38;32.40;;;;;;;;;;5082110;28;20047;-65
2021/12/12 14:53:42;;;;;;;76.03;27.83;;;;;;;;;;5089369;28;20113;-64
2021/12/12 14:56:10;;;;;;;70.38;23.38;;;;;;;;;;5076215;28;20044;-65
2021/12/12 14:58:45;;;;;;;59.97;19.35;;;;;;;;;;5094236;28;20063;-65